ESGR/KVB METAR and TAF weather

Enter ICAO airport designator
Station Type Date Time Source
ESGR METAR 2022/01/29 00:50 UTC NOAA

ESGR 290050Z AUTO 20012KT 9999 -RA VV020 02/00 Q1009


Station Type Date Time Source
ESGR Decoded METAR 2022/01/29 00:50 UTC NOAA

Skovde Flygplats, Sweden (ESGR) 58-27N 013-58E 105M
Jan 28, 2022 - 07:50 PM EST / 2022.01.29 0050 UTC
Wind: from the SSW (200 degrees) at 14 MPH (12 KT):0
Visibility: greater than 7 mile(s):0
Sky conditions: obscured
Weather: light rain
Temperature: 35 F (2 C)
Windchill: 26 F (-3 C):1
Dew Point: 32 F (0 C)
Relative Humidity: 86%
Pressure (altimeter): 29.80 in. Hg (1009 hPa)
ob: ESGR 290050Z AUTO 20012KT 9999 -RA VV020 02/00 Q1009
cycle: 1

Station Type Date Time Source
ESGR TAF 2009/06/28 04:50 UTC NOAA

METAR ESGR 280450Z AUTO VRB02KT 9999NDV NCD 17/12 Q1020

Example: see airport list